Relevés horaires Beauvechain (Belgique)


Relevés horaires à Beauvechain - Lundi 02 Juill. 2018
Heure UTC1 Température [°C] Vent [km/h] Hum. [%] Pres.4 [hPa] Visi. [Km] Nébu. [octa] Préc.5 [mm] Cond.
2m. Res. Ros. Dir.2 Vit. Moy. Raf.3
23:00 17.4 17.4 6.3 NE 3.7 -- 7.4 48 1016.6(1.2/3h) 20 -- -- --
22:00 18.6 18.6 5.8 NE 5.6 -- 7.4 43 1016.2(1.4/3h) 20 -- -- --
21:00 19.7 19.7 5.7 NE 5.6 -- 11.1 40 1015.7(1.1/3h) 20 -- -- --
20:00 21.8 21.8 6.3 NE 3.7 -- 7.4 37 1015.1(0.7/3h) 20 -- -- --
19:00 24.0 24.0 6.7 NE 3.7 -- 11.1 33 1014.5(0.1/3h) 20 -- -- --
18:00 26.2 26.2 4.8 ENE 7.4 -- 14.8 25 1014.2(0.1/3h) 20 -- -- --
17:00 27.0 27.0 4.6 E 7.4 -- 13.0 24 1014(-0.1/3h) 20 -- -- --
16:00 27.2 27.2 3.6 ENE 9.3 -- 14.8 22 1014.2(-0.6/3h) 20 1/8 -- --
15:00 27.2 27.2 5.0 ENE 7.4 -- 14.8 24 1014(-0.6/3h) 20 1/8 -- --
13:00 26.2 26.2 7.3 ENE 9.3 -- 14.8 30 1014.7(0.0/3h) 20 1/8 -- --
12:00 26.1 26.1 6.2 ENE 9.3 -- 18.5 28 1014.7(-0.2/3h) 20 1/8 -- --
11:00 24.9 24.9 5.9 E 9.3 -- 16.7 29 1014.8(0.0/3h) 20 1/8 -- --
10:00 24.2 24.2 7.4 NE 9.3 -- 14.8 34 1014.8(0.2/3h) 20 1/8 -- --
09:00 22.1 22.1 7.6 NE 7.4 -- 13.0 39 1015.1(0.6/3h) 20 1/8 -- --
08:00 20.1 20.1 7.6 ENE 7.4 -- 11.1 44 1015.1(0.7/3h) 20 1/8 -- --
07:00 18.1 18.1 6.5 ENE 5.6 -- 11.1 47 1015(0.3/3h) 20 1/8 -- --
06:00 16.2 16.2 5.7 ENE 5.6 -- 9.3 50 1014.7(0.0/3h) 20 1/8 -- --
05:00 15.0 15.0 5.1 ENE 3.7 -- 7.4 52 1014.6(0.1/3h) 20 0/8 -- --
04:00 14.3 14.3 4.8 ENE 5.6 -- 7.4 53 1014.8(0.2/3h) 20 0/8 -- --
03:00 14.5 14.5 5.1 E 3.7 -- 7.4 53 1014.7(0.3/3h) 20 -- -- --
02:00 15.8 15.8 5.2 E 3.7 -- 5.6 49 1014.3(-0.1/3h) 20 -- -- --
01:00 16.6 16.6 5.4 E 3.7 -- 7.4 47 1014.5(-0.1/3h) 20 -- -- --
00:00 16.8 16.8 5.8 ENE 5.6 -- 13.0 48 1014.2(-0.1/3h) 20 -- -- --

1 Coordinated Universal Time. Actuellement il est 16:00 locale et 15:00 UTC.

2 Le vent souffle depuis la direction indiquée vers la direction oposée.

3 Les rafales max. sont disponible 40 min après l'heure du relevé.

4 Pour les stations d'altitude (plus de 600m) le géopotentiel du niveau le plus proche de la pression obligatoire est indiqué.

5 Les stations disposant d'un diffuseur peuvent indiquer "trace". Cela signifie que des précipitations ont touchés le sol mais que la quantité est inférieure à 0.1 mm.

Récapitulatif de la journée
Température [°C] Vent [km/h] Ensoleillement4 [h] Precipitations totale5 [mm] Pression [Hpa]
Min1 Max.2 Moy.3 Max. Min Max.
13.1 27.5 0 18.5 0 h 0 min 0 1014.0 1016.6

1 Température minimale relevée entre 18:00 UTC la veille et 18:00 UTC le jour donné.

2 Température maximale relevée entre 06:00 UTC le jour donné et 06:00 UTC le lendemain.

3 Vent moyen de la journée basé sur les relevés horaires.

4 Ensoleillement en heures relevé entre 06:00 UTC la veille et 06:00 UTC le jour donné.

5 Précipitations totales tombées entre 06:00 UTC la jour donné et 06:00 UTC le lendemain.

Graphiques horaires